Terminal Aerodrome Forecast
Issued by NWS

Home | Current Version | Previous Version | Graphics & Text | Print | Product List | Glossary Off
Versions: 1 2 3 4 5 6 7 8 9 10 11 12 13 14 15 16 17 18 19 20

535
FTUS43 KFGF 251724 AAA
TAFBJI
TAF AMD
KBJI 251724Z 2517/2618 13014KT P6SM SCT025
      TEMPO 2518/2519 BKN020
     FM260500 14006KT P6SM BKN020
     FM261200 VRB06KT P6SM BKN010=

USA.gov is the U.S. government's official web portal to all federal, state and local government web resources and services.